createdAt,value
2018-05-04T00:00:55.237Z,9.00
2018-05-04T00:03:23.726Z,9.50
2018-05-04T00:05:52.344Z,8.37
2018-05-04T00:08:21.704Z,8.20
2018-05-04T00:10:50.185Z,8.57
2018-05-04T00:13:18.685Z,9.03
2018-05-04T00:15:47.165Z,8.77
2018-05-04T00:18:15.637Z,9.23
2018-05-04T00:20:44.098Z,9.63
2018-05-04T00:23:12.598Z,13.80
2018-05-04T00:25:41.095Z,9.93
2018-05-04T00:28:09.725Z,10.90
2018-05-04T00:30:38.667Z,10.67
2018-05-04T00:33:07.255Z,11.17
2018-05-04T00:35:35.741Z,10.97
2018-05-04T00:38:03.913Z,11.67
2018-05-04T00:40:32.421Z,10.80
2018-05-04T00:43:00.825Z,13.13
2018-05-04T00:45:29.366Z,13.80
2018-05-04T00:47:57.935Z,12.13
2018-05-04T00:50:26.489Z,13.37
2018-05-04T00:52:55.731Z,12.93
2018-05-04T00:55:25.143Z,12.30
2018-05-04T00:57:53.717Z,12.60
2018-05-04T01:00:22.221Z,13.60
2018-05-04T01:02:50.712Z,14.40
2018-05-04T01:05:18.952Z,15.60
2018-05-04T01:07:47.113Z,21.23
2018-05-04T01:10:15.602Z,14.73
2018-05-04T01:12:44.213Z,15.10
2018-05-04T01:15:12.694Z,14.73
2018-05-04T01:17:41.184Z,14.53
2018-05-04T01:20:09.669Z,14.63
2018-05-04T01:22:38.181Z,14.60
2018-05-04T01:25:06.699Z,14.23
2018-05-04T01:27:35.194Z,13.20
2018-05-04T01:30:03.384Z,15.43
2018-05-04T01:32:31.961Z,15.50
2018-05-04T01:35:00.449Z,13.33
2018-05-04T01:37:29.009Z,13.30
2018-05-04T01:39:57.489Z,13.90
2018-05-04T01:42:25.966Z,14.50
2018-05-04T01:44:55.217Z,13.30
2018-05-04T01:47:23.782Z,13.87
2018-05-04T01:49:52.289Z,14.57
2018-05-04T01:52:20.541Z,14.47
2018-05-04T01:54:49.105Z,13.63
2018-05-04T01:57:17.593Z,13.80
2018-05-04T01:59:46.068Z,14.27
2018-05-04T02:02:14.269Z,13.77
2018-05-04T02:04:42.552Z,15.27
2018-05-04T02:07:11.121Z,14.17
2018-05-04T02:09:39.601Z,14.40
2018-05-04T02:12:07.758Z,16.93
2018-05-04T02:14:36.246Z,14.93
2018-05-04T02:17:04.757Z,18.53
2018-05-04T02:19:33.250Z,16.43
2018-05-04T02:22:02.069Z,15.20
2018-05-04T02:24:30.610Z,14.87
2018-05-04T02:26:59.110Z,16.63
2018-05-04T02:29:27.612Z,15.53
2018-05-04T02:31:57.730Z,15.70
2018-05-04T02:34:26.237Z,16.30
2018-05-04T02:36:55.573Z,15.20
2018-05-04T02:39:24.046Z,16.70
2018-05-04T02:41:52.546Z,16.07
2018-05-04T02:44:21.234Z,16.57
2018-05-04T02:46:49.743Z,16.07
2018-05-04T02:49:18.254Z,16.10
2018-05-04T02:51:47.497Z,14.60
2018-05-04T02:54:16.081Z,15.80
2018-05-04T02:56:44.609Z,15.23
2018-05-04T02:59:13.112Z,16.23
2018-05-04T03:01:42.453Z,18.57
2018-05-04T03:04:10.937Z,16.00
2018-05-04T03:06:39.522Z,16.03
2018-05-04T03:09:07.812Z,17.00
2018-05-04T03:11:36.386Z,17.13
2018-05-04T03:14:04.930Z,17.00
2018-05-04T03:16:34.185Z,17.57
2018-05-04T03:19:02.828Z,15.80
2018-05-04T03:21:31.309Z,16.40
2018-05-04T03:24:00.748Z,17.37
2018-05-04T03:26:29.232Z,17.50
2018-05-04T03:28:57.793Z,17.90
2018-05-04T03:31:26.437Z,17.50
2018-05-04T03:33:55.705Z,16.80
2018-05-04T03:36:24.214Z,17.03
2018-05-04T03:38:52.693Z,18.20
2018-05-04T03:41:21.960Z,15.87
2018-05-04T03:43:50.584Z,17.13
2018-05-04T03:46:19.182Z,17.93
2018-05-04T03:48:47.680Z,17.67
2018-05-04T03:51:16.948Z,17.70
2018-05-04T03:53:45.428Z,17.73
2018-05-04T03:56:13.923Z,18.73
2018-05-04T03:58:54.437Z,18.83
2018-05-04T04:01:34.208Z,17.80
2018-05-04T04:04:13.873Z,18.53
2018-05-04T04:06:42.352Z,17.30
2018-05-04T04:09:10.857Z,19.10
2018-05-04T04:11:39.536Z,18.27
2018-05-04T04:14:08.041Z,17.37
2018-05-04T04:16:37.295Z,17.00
2018-05-04T04:19:05.786Z,16.73
2018-05-04T04:21:34.266Z,17.50
2018-05-04T04:24:02.760Z,15.30
2018-05-04T04:26:31.273Z,17.07
2018-05-04T04:29:00.505Z,15.77
2018-05-04T04:31:29.105Z,16.03
2018-05-04T04:33:57.581Z,16.60
2018-05-04T04:36:25.872Z,15.70
2018-05-04T04:38:56.127Z,16.67
2018-05-04T04:41:24.819Z,16.30
2018-05-04T04:43:53.370Z,15.03
2018-05-04T04:46:21.857Z,15.60
2018-05-04T04:48:50.365Z,16.20
2018-05-04T04:51:19.741Z,14.57
2018-05-04T04:53:48.273Z,15.30
2018-05-04T04:56:17.016Z,14.90
2018-05-04T04:58:45.513Z,16.70
2018-05-04T05:01:14.777Z,15.20
2018-05-04T05:03:43.253Z,16.20
2018-05-04T05:06:11.776Z,15.77
2018-05-04T05:08:41.049Z,16.27
2018-05-04T05:11:09.628Z,15.47
2018-05-04T05:13:39.033Z,15.37
2018-05-04T05:16:07.529Z,16.10
2018-05-04T05:18:36.012Z,14.90
2018-05-04T05:21:04.498Z,14.13
2018-05-04T05:23:33.004Z,13.87
2018-05-04T05:26:02.480Z,14.60
2018-05-04T05:28:31.163Z,15.23
2018-05-04T05:30:59.741Z,14.87
2018-05-04T05:33:28.366Z,15.13
2018-05-04T05:35:56.878Z,13.53
2018-05-04T05:38:26.185Z,15.00
2018-05-04T05:40:54.849Z,14.60
2018-05-04T05:43:23.378Z,14.33
2018-05-04T05:45:51.898Z,13.43
2018-05-04T05:48:20.305Z,13.40
2018-05-04T05:50:52.445Z,13.40
2018-05-04T05:53:20.946Z,13.67
2018-05-04T05:55:49.417Z,13.40
2018-05-04T05:58:18.132Z,13.03
2018-05-04T06:00:47.385Z,14.60
2018-05-04T06:03:15.875Z,14.00
2018-05-04T06:05:44.475Z,13.97
2018-05-04T06:08:12.938Z,13.00
2018-05-04T06:10:41.421Z,13.93
2018-05-04T06:13:09.666Z,13.83
2018-05-04T06:15:38.158Z,12.37
2018-05-04T06:18:09.569Z,11.60
2018-05-04T06:20:38.820Z,13.83
2018-05-04T06:23:07.305Z,11.83
2018-05-04T06:25:36.861Z,12.67
2018-05-04T06:28:06.104Z,17.47
2018-05-04T06:30:34.595Z,16.03
2018-05-04T06:33:03.073Z,11.60
2018-05-04T06:35:31.577Z,10.83
2018-05-04T06:38:00.148Z,14.07
2018-05-04T06:40:28.649Z,10.57
2018-05-04T06:42:57.912Z,16.33
2018-05-04T06:45:26.501Z,10.47
2018-05-04T06:47:55.137Z,10.73
2018-05-04T06:50:23.653Z,12.57
2018-05-04T06:52:53.154Z,10.13
2018-05-04T06:55:22.630Z,10.40
2018-05-04T06:57:52.139Z,12.10
2018-05-04T07:00:21.609Z,9.80
2018-05-04T07:02:51.110Z,10.50
2018-05-04T07:05:20.772Z,11.70
2018-05-04T07:07:50.296Z,10.60
2018-05-04T07:10:19.855Z,8.80
2018-05-04T07:12:47.997Z,9.33
2018-05-04T07:15:17.516Z,9.07
2018-05-04T07:17:46.980Z,8.67
2018-05-04T07:20:16.474Z,12.13
2018-05-04T07:22:45.984Z,8.27
2018-05-04T07:25:15.484Z,8.50
2018-05-04T07:27:45.183Z,9.93
2018-05-04T07:30:14.779Z,9.77
2018-05-04T07:32:44.457Z,18.00
2018-05-04T07:35:13.932Z,9.27
2018-05-04T07:37:43.190Z,9.83
2018-05-04T07:40:12.672Z,9.50
2018-05-04T07:42:42.164Z,9.60
2018-05-04T07:45:11.660Z,8.23
2018-05-04T07:47:41.316Z,9.83
2018-05-04T07:50:10.999Z,12.43
2018-05-04T07:52:40.469Z,8.83
2018-05-04T07:55:09.981Z,9.00
2018-05-04T07:57:39.460Z,11.50
2018-05-04T08:00:08.949Z,14.20
2018-05-04T08:02:38.467Z,11.40
2018-05-04T08:05:07.962Z,10.33
2018-05-04T08:07:37.547Z,8.00
2018-05-04T08:10:07.168Z,8.30
2018-05-04T08:12:36.996Z,9.70
2018-05-04T08:15:06.601Z,9.83
2018-05-04T08:17:36.109Z,10.13
2018-05-04T08:20:05.664Z,10.37
2018-05-04T08:22:35.292Z,11.30
2018-05-04T08:25:04.781Z,9.73
2018-05-04T08:27:34.256Z,9.50
2018-05-04T08:30:03.799Z,8.43
2018-05-04T08:32:33.420Z,10.17
2018-05-04T08:35:02.913Z,7.83
2018-05-04T08:37:32.620Z,10.33
2018-05-04T08:40:02.108Z,8.37
2018-05-04T08:42:31.591Z,8.00
2018-05-04T08:45:01.393Z,7.57
2018-05-04T08:47:30.868Z,7.80
2018-05-04T08:50:00.491Z,11.63
2018-05-04T08:52:30.161Z,10.10
2018-05-04T08:54:59.653Z,9.23
2018-05-04T08:57:29.238Z,9.10
2018-05-04T08:59:59.061Z,10.63
2018-05-04T09:02:28.631Z,10.97
2018-05-04T09:04:58.364Z,10.43
2018-05-04T09:07:27.968Z,9.73
2018-05-04T09:09:57.409Z,9.37
2018-05-04T09:12:26.883Z,12.97
2018-05-04T09:14:56.492Z,9.33
2018-05-04T09:17:25.976Z,11.10
2018-05-04T09:19:55.506Z,10.40
2018-05-04T09:22:24.149Z,11.43
2018-05-04T09:24:53.636Z,11.47
2018-05-04T09:27:23.141Z,11.40
2018-05-04T09:29:52.648Z,11.53
2018-05-04T09:32:22.132Z,10.27
2018-05-04T09:34:51.664Z,11.37
2018-05-04T09:37:21.187Z,14.53
2018-05-04T09:39:50.884Z,10.93
2018-05-04T09:42:20.542Z,10.87
2018-05-04T09:44:50.071Z,12.03
2018-05-04T09:47:19.585Z,13.03
2018-05-04T09:49:49.092Z,12.47
2018-05-04T09:52:18.581Z,14.23
2018-05-04T09:54:48.100Z,14.00
2018-05-04T09:57:17.649Z,12.43
2018-05-04T09:59:47.144Z,11.90
2018-05-04T10:02:16.721Z,11.90
2018-05-04T10:04:46.225Z,12.47
2018-05-04T10:07:15.929Z,12.87
2018-05-04T10:09:45.539Z,12.17
2018-05-04T10:12:15.035Z,12.83
2018-05-04T10:14:44.562Z,13.40
2018-05-04T10:17:14.184Z,12.93
2018-05-04T10:19:43.728Z,13.53
2018-05-04T10:22:13.227Z,12.90
2018-05-04T10:24:42.724Z,15.00
2018-05-04T10:27:12.252Z,14.83
2018-05-04T10:29:41.745Z,13.63
2018-05-04T10:32:11.098Z,15.30
2018-05-04T10:34:40.602Z,13.77
2018-05-04T10:37:10.096Z,14.60
2018-05-04T10:39:39.587Z,15.03
2018-05-04T10:42:09.083Z,14.00
2018-05-04T10:44:38.333Z,13.80
2018-05-04T10:47:07.604Z,16.63
2018-05-04T10:49:37.088Z,15.67
2018-05-04T10:52:06.598Z,14.13
2018-05-04T10:54:36.094Z,14.87
2018-05-04T10:57:05.348Z,15.17
2018-05-04T10:59:34.892Z,14.63
2018-05-04T11:02:04.475Z,14.00
2018-05-04T11:04:34.165Z,15.40
2018-05-04T11:07:03.636Z,13.50
2018-05-04T11:09:33.181Z,13.93
2018-05-04T11:12:02.755Z,12.87
2018-05-04T11:14:32.374Z,14.07
2018-05-04T11:17:01.880Z,14.67
2018-05-04T11:19:31.148Z,14.70
2018-05-04T11:22:00.844Z,13.67
2018-05-04T11:24:30.394Z,14.80
2018-05-04T11:26:59.992Z,13.90
2018-05-04T11:29:29.524Z,15.73
2018-05-04T11:31:59.029Z,14.83
2018-05-04T11:34:28.570Z,14.50
2018-05-04T11:36:58.250Z,14.23
2018-05-04T11:39:27.748Z,12.60
2018-05-04T11:41:57.140Z,13.30
2018-05-04T11:44:26.693Z,13.70
2018-05-04T11:46:56.187Z,12.80
2018-05-04T11:49:25.724Z,13.17
2018-05-04T11:51:55.428Z,12.73
2018-05-04T11:54:25.119Z,12.53
2018-05-04T11:56:54.613Z,14.73
2018-05-04T11:59:24.133Z,11.93
2018-05-04T12:01:53.621Z,13.93
2018-05-04T12:04:23.132Z,13.33
2018-05-04T12:06:52.625Z,12.80
2018-05-04T12:09:22.160Z,12.53
2018-05-04T12:11:51.665Z,12.80
2018-05-04T12:14:21.176Z,13.20
2018-05-04T12:16:50.685Z,13.77
2018-05-04T12:19:20.196Z,12.97
2018-05-04T12:21:49.775Z,13.43
2018-05-04T12:24:19.305Z,12.63
2018-05-04T12:26:48.884Z,12.33
2018-05-04T12:29:18.420Z,14.40
2018-05-04T12:31:47.933Z,14.93
2018-05-04T12:34:17.455Z,13.13
2018-05-04T12:36:46.969Z,13.17
2018-05-04T12:39:16.441Z,12.40
2018-05-04T12:41:46.004Z,12.97
2018-05-04T12:44:15.504Z,14.43
2018-05-04T12:46:45.010Z,17.93
2018-05-04T12:49:14.508Z,13.90
2018-05-04T12:51:43.993Z,14.00
2018-05-04T12:54:13.489Z,14.50
2018-05-04T12:56:42.973Z,14.73
2018-05-04T12:59:11.490Z,14.57
2018-05-04T13:01:40.197Z,12.93
2018-05-04T13:04:08.700Z,16.43
2018-05-04T13:06:38.060Z,12.27
2018-05-04T13:09:07.751Z,14.03
2018-05-04T13:11:37.267Z,13.57
2018-05-04T13:14:06.561Z,11.17
2018-05-04T13:16:36.155Z,11.97
2018-05-04T13:19:05.661Z,12.07
2018-05-04T13:21:35.219Z,13.20
2018-05-04T13:24:04.736Z,12.33
2018-05-04T13:26:34.216Z,11.70
2018-05-04T13:29:03.741Z,9.40
2018-05-04T13:31:33.329Z,10.70
2018-05-04T13:34:02.863Z,11.43
2018-05-04T13:36:32.942Z,11.00
2018-05-04T13:39:03.152Z,11.37
2018-05-04T13:41:33.126Z,10.50
2018-05-04T13:44:02.700Z,14.00
2018-05-04T13:46:32.261Z,11.63
2018-05-04T13:49:01.753Z,11.53
2018-05-04T13:51:31.321Z,12.00
2018-05-04T13:54:01.177Z,13.10
2018-05-04T13:56:30.692Z,12.50
2018-05-04T13:59:00.289Z,11.90
2018-05-04T14:01:29.577Z,14.20
2018-05-04T14:03:59.086Z,11.83
2018-05-04T14:06:28.968Z,13.60
2018-05-04T14:08:58.459Z,12.40
2018-05-04T14:11:28.085Z,13.70
2018-05-04T14:13:57.590Z,11.23
2018-05-04T14:16:27.063Z,13.90
2018-05-04T14:18:56.580Z,17.37
2018-05-04T14:21:26.074Z,12.73
2018-05-04T14:23:55.665Z,12.80
2018-05-04T14:26:25.161Z,12.97
2018-05-04T14:28:54.685Z,12.07
2018-05-04T14:31:24.183Z,12.87
2018-05-04T14:33:53.928Z,11.63
2018-05-04T14:36:23.438Z,11.33
2018-05-04T14:38:52.985Z,12.83
2018-05-04T14:41:22.489Z,13.03
2018-05-04T14:43:52.029Z,12.37
2018-05-04T14:46:21.222Z,11.07
2018-05-04T14:48:50.700Z,12.40
2018-05-04T14:51:20.734Z,12.30
2018-05-04T14:53:50.352Z,14.63
2018-05-04T14:56:19.651Z,12.73
2018-05-04T14:58:49.147Z,12.60
2018-05-04T15:01:18.789Z,12.57
2018-05-04T15:03:47.277Z,11.97
2018-05-04T15:06:16.773Z,11.97
2018-05-04T15:08:46.389Z,11.70
2018-05-04T15:11:15.897Z,13.33
2018-05-04T15:13:45.392Z,12.13
2018-05-04T15:16:14.992Z,11.57
2018-05-04T15:18:44.526Z,11.40
2018-05-04T15:21:13.773Z,11.33
2018-05-04T15:23:42.644Z,10.70
2018-05-04T15:26:12.183Z,11.30
2018-05-04T15:28:41.442Z,10.67
2018-05-04T15:31:10.945Z,10.77
2018-05-04T15:33:40.510Z,12.10
2018-05-04T15:36:09.996Z,15.20
2018-05-04T15:38:39.582Z,10.07
2018-05-04T15:41:08.113Z,14.10
2018-05-04T15:43:38.304Z,11.30
2018-05-04T15:46:07.782Z,10.20
2018-05-04T15:48:42.937Z,10.57
2018-05-04T15:51:17.912Z,12.43
2018-05-04T15:53:47.421Z,9.03
2018-05-04T15:56:16.892Z,11.50
2018-05-04T15:58:46.385Z,10.53
2018-05-04T16:01:15.874Z,10.33
2018-05-04T16:03:45.364Z,9.80
2018-05-04T16:06:14.422Z,9.47
2018-05-04T16:08:44.172Z,10.40
2018-05-04T16:11:13.659Z,13.60
2018-05-04T16:13:43.204Z,12.00
2018-05-04T16:16:12.869Z,9.97
2018-05-04T16:18:42.347Z,11.80
2018-05-04T16:21:11.856Z,11.50
2018-05-04T16:23:40.350Z,16.73
2018-05-04T16:26:09.871Z,9.40
2018-05-04T16:28:39.448Z,10.17
2018-05-04T16:31:07.939Z,9.43
2018-05-04T16:33:36.443Z,9.20
2018-05-04T16:36:05.975Z,9.43
2018-05-04T16:38:35.483Z,10.00
2018-05-04T16:41:04.468Z,8.53
2018-05-04T16:43:33.750Z,9.03
2018-05-04T16:46:03.026Z,10.63
2018-05-04T16:48:37.981Z,14.37
2018-05-04T16:51:06.531Z,8.93
2018-05-04T16:53:35.017Z,11.90
2018-05-04T16:56:03.273Z,8.83
2018-05-04T16:58:31.506Z,8.17
2018-05-04T17:01:00.824Z,9.00
2018-05-04T17:03:30.321Z,9.17
2018-05-04T17:05:59.565Z,9.27
2018-05-04T17:08:28.880Z,7.47
2018-05-04T17:10:58.136Z,7.23
2018-05-04T17:13:27.558Z,6.30
2018-05-04T17:15:56.853Z,6.47
2018-05-04T17:18:26.298Z,8.00
2018-05-04T17:20:55.691Z,7.17
2018-05-04T17:23:23.973Z,6.67
2018-05-04T17:25:52.253Z,5.73
2018-05-04T17:28:21.741Z,5.70
2018-05-04T17:30:51.244Z,5.63
2018-05-04T17:33:20.473Z,6.23
2018-05-04T17:35:49.445Z,5.37
2018-05-04T17:38:18.001Z,9.10
2018-05-04T17:40:47.133Z,7.50
2018-05-04T17:43:15.673Z,4.37
2018-05-04T17:45:44.266Z,7.57
2018-05-04T17:48:13.767Z,5.17
2018-05-04T17:50:43.278Z,5.57
2018-05-04T17:53:12.957Z,5.67
2018-05-04T17:55:42.587Z,6.70
2018-05-04T17:58:11.904Z,5.47
2018-05-04T18:00:41.537Z,5.50
2018-05-04T18:03:11.063Z,5.30
2018-05-04T18:05:39.720Z,11.50
2018-05-04T18:08:08.633Z,5.20
2018-05-04T18:10:37.537Z,4.60
2018-05-04T18:13:06.051Z,7.83
2018-05-04T18:15:35.571Z,10.27
2018-05-04T18:18:04.875Z,10.50
2018-05-04T18:20:34.151Z,4.87
2018-05-04T18:23:04.162Z,5.30
2018-05-04T18:25:32.654Z,5.30
2018-05-04T18:28:01.935Z,8.90
2018-05-04T18:30:30.468Z,5.37
2018-05-04T18:32:59.419Z,8.20
2018-05-04T18:35:28.268Z,4.83
2018-05-04T18:37:57.751Z,5.50
2018-05-04T18:40:27.022Z,6.60
2018-05-04T18:42:55.510Z,5.43
2018-05-04T18:45:25.009Z,8.83
2018-05-04T18:47:53.684Z,5.00
2018-05-04T18:50:23.184Z,5.00
2018-05-04T18:52:52.757Z,4.80
2018-05-04T18:55:21.993Z,7.17
2018-05-04T18:57:50.495Z,6.27
2018-05-04T19:00:18.983Z,7.20
2018-05-04T19:02:54.000Z,8.30
2018-05-04T19:05:23.501Z,9.50
2018-05-04T19:07:53.057Z,5.47
2018-05-04T19:10:21.933Z,5.47
2018-05-04T19:12:50.446Z,5.77
2018-05-04T19:15:19.546Z,7.90
2018-05-04T19:17:49.042Z,9.00
2018-05-04T19:20:18.650Z,5.80
2018-05-04T19:22:48.152Z,5.07
2018-05-04T19:25:17.761Z,8.23
2018-05-04T19:27:47.249Z,7.63
2018-05-04T19:30:16.830Z,7.33
2018-05-04T19:32:46.308Z,7.57
2018-05-04T19:35:15.854Z,8.13
2018-05-04T19:37:45.372Z,7.27
2018-05-04T19:40:14.896Z,5.30
2018-05-04T19:42:44.381Z,5.93
2018-05-04T19:45:13.898Z,6.20
2018-05-04T19:47:43.425Z,6.13
2018-05-04T19:50:12.942Z,5.60
2018-05-04T19:52:42.451Z,7.30
2018-05-04T19:55:11.925Z,6.30
2018-05-04T19:57:41.420Z,6.27
2018-05-04T20:00:10.904Z,8.63
2018-05-04T20:02:40.463Z,4.63
2018-05-04T20:05:09.944Z,4.90
2018-05-04T20:07:39.576Z,8.37
2018-05-04T20:10:09.072Z,8.47
2018-05-04T20:12:38.598Z,4.37
2018-05-04T20:15:08.181Z,4.43
2018-05-04T20:17:37.774Z,5.00
2018-05-04T20:20:07.285Z,9.53
2018-05-04T20:22:36.786Z,5.40
2018-05-04T20:25:06.292Z,4.60
2018-05-04T20:27:35.820Z,5.23
2018-05-04T20:30:05.554Z,3.83
2018-05-04T20:32:35.092Z,4.57
2018-05-04T20:35:04.586Z,4.50
2018-05-04T20:37:34.145Z,6.40
2018-05-04T20:40:03.273Z,7.10
2018-05-04T20:42:32.788Z,6.73
2018-05-04T20:45:02.280Z,4.67
2018-05-04T20:47:31.786Z,5.23
2018-05-04T20:50:01.120Z,5.07
2018-05-04T20:52:30.019Z,4.97
2018-05-04T20:54:59.314Z,5.63
2018-05-04T20:57:28.208Z,4.77
2018-05-04T20:59:57.107Z,4.13
2018-05-04T21:02:25.773Z,5.67
2018-05-04T21:04:54.241Z,9.00
2018-05-04T21:07:23.137Z,4.80
2018-05-04T21:09:52.289Z,7.13
2018-05-04T21:12:20.857Z,7.60
2018-05-04T21:14:50.384Z,7.13
2018-05-04T21:17:19.911Z,4.67
2018-05-04T21:19:49.647Z,4.63
2018-05-04T21:22:19.368Z,5.70
2018-05-04T21:24:48.865Z,4.20
2018-05-04T21:27:18.341Z,4.37
2018-05-04T21:29:47.597Z,7.80
2018-05-04T21:32:17.168Z,6.17
2018-05-04T21:34:46.692Z,4.40
2018-05-04T21:37:16.180Z,5.10
2018-05-04T21:39:45.745Z,6.57
2018-05-04T21:42:15.463Z,4.83
2018-05-04T21:44:45.155Z,5.27
2018-05-04T21:47:14.828Z,6.13
2018-05-04T21:49:44.377Z,8.43
2018-05-04T21:52:13.716Z,6.77
2018-05-04T21:54:43.192Z,6.73
2018-05-04T21:57:12.696Z,4.20
2018-05-04T21:59:42.203Z,5.37
2018-05-04T22:02:11.708Z,4.97
2018-05-04T22:04:41.524Z,8.10
2018-05-04T22:07:11.317Z,8.33
2018-05-04T22:09:40.796Z,6.10
2018-05-04T22:12:10.485Z,5.50
2018-05-04T22:14:39.978Z,4.13
2018-05-04T22:17:09.360Z,8.63
2018-05-04T22:19:38.997Z,4.67
2018-05-04T22:22:08.492Z,9.40
2018-05-04T22:24:38.092Z,6.27
2018-05-04T22:27:07.576Z,8.70
2018-05-04T22:29:37.073Z,5.37
2018-05-04T22:32:06.310Z,5.10
2018-05-04T22:34:35.908Z,4.80
2018-05-04T22:37:05.400Z,4.60
2018-05-04T22:39:34.937Z,5.43
2018-05-04T22:42:04.433Z,4.93
2018-05-04T22:44:33.922Z,5.97
2018-05-04T22:47:03.440Z,5.10
2018-05-04T22:49:32.925Z,6.13
2018-05-04T22:52:02.414Z,6.30
2018-05-04T22:54:31.891Z,5.07
2018-05-04T22:57:01.525Z,9.33
2018-05-04T22:59:31.012Z,7.07
2018-05-04T23:02:00.491Z,4.87
2018-05-04T23:04:29.985Z,5.27
2018-05-04T23:06:59.237Z,7.40
2018-05-04T23:09:28.797Z,4.87
2018-05-04T23:11:58.324Z,6.37
2018-05-04T23:14:27.797Z,4.37
2018-05-04T23:16:57.291Z,6.53
2018-05-04T23:19:26.772Z,5.30
2018-05-04T23:21:56.240Z,4.97
2018-05-04T23:24:25.899Z,4.17
2018-05-04T23:26:55.369Z,7.97
2018-05-04T23:29:24.872Z,8.10
2018-05-04T23:31:54.355Z,5.33
2018-05-04T23:34:23.935Z,4.97
2018-05-04T23:36:53.545Z,9.37
2018-05-04T23:39:23.047Z,8.43
2018-05-04T23:41:52.872Z,4.70
2018-05-04T23:44:21.745Z,8.63
2018-05-04T23:46:51.025Z,6.60
2018-05-04T23:49:19.496Z,7.10
2018-05-04T23:51:48.024Z,8.30
2018-05-04T23:54:17.497Z,5.80
2018-05-04T23:56:46.994Z,7.03
2018-05-04T23:59:16.492Z,5.77
